Time;durP1;ratioP1;P1;durP2;ratioP2;P2;SDS_P1;SDS_P2;PMS_P1;PMS_P2;Temp;Humidity;BMP_temperature;BMP_pressure;BME280_temperature;BME280_humidity;BME280_pressure;Samples;Min_cycle;Max_cycle;Signal;HPM_P1;HPM_P2
2023/06/18 00:02:05;;;;;;;8.10;5.45;;;20.10;76.30;;;;;;5040055;28;20033;-85
2023/06/18 00:04:32;;;;;;;8.43;5.63;;;20.10;76.00;;;;;;5040379;28;20059;-85
2023/06/18 00:06:58;;;;;;;8.35;5.60;;;20.20;76.10;;;;;;5040074;28;20029;-86
2023/06/18 00:09:24;;;;;;;7.22;5.53;;;20.20;75.90;;;;;;5039651;28;20058;-86
2023/06/18 00:11:50;;;;;;;6.75;5.43;;;20.10;76.80;;;;;;5040842;28;20021;-86
2023/06/18 00:14:16;;;;;;;8.00;5.95;;;20.10;76.10;;;;;;5057538;28;20033;-85
2023/06/18 00:16:42;;;;;;;8.27;6.25;;;20.10;76.10;;;;;;5058133;28;20086;-86
2023/06/18 00:19:08;;;;;;;9.77;5.70;;;20.00;76.20;;;;;;5040039;28;20025;-86
2023/06/18 00:21:34;;;;;;;7.95;5.68;;;20.00;76.00;;;;;;5040038;28;20021;-86
2023/06/18 00:24:00;;;;;;;8.95;6.05;;;19.90;76.40;;;;;;5057875;28;20021;-86
2023/06/18 00:26:25;;;;;;;8.63;6.20;;;19.90;77.00;;;;;;5039564;28;20371;-86
2023/06/18 00:28:54;;;;;;;6.57;5.38;;;19.80;77.40;;;;;;5040294;28;20024;-86
2023/06/18 00:31:20;;;;;;;8.20;5.88;;;19.80;77.30;;;;;;5039756;28;20025;-86
2023/06/18 00:33:46;;;;;;;8.77;5.72;;;19.70;77.80;;;;;;5039802;28;20036;-85
2023/06/18 00:36:12;;;;;;;9.70;6.10;;;19.70;77.70;;;;;;5037942;28;20035;-85
2023/06/18 00:38:45;;;;;;;10.60;5.80;;;19.70;77.90;;;;;;5038383;28;20033;-85
2023/06/18 00:41:11;;;;;;;10.35;5.65;;;19.70;77.90;;;;;;5036838;28;20090;-85
2023/06/18 00:43:37;;;;;;;6.63;5.55;;;19.70;77.80;;;;;;5039628;28;20082;-86
2023/06/18 00:46:04;;;;;;;7.97;5.72;;;19.70;77.90;;;;;;5057910;28;20063;-83
2023/06/18 00:48:31;;;;;;;8.73;5.63;;;19.70;77.60;;;;;;5040978;28;20035;-85
2023/06/18 00:50:58;;;;;;;9.02;5.97;;;19.70;77.80;;;;;;5058371;28;20017;-86
2023/06/18 00:53:25;;;;;;;8.00;5.60;;;19.70;77.70;;;;;;5040002;28;20029;-85
2023/06/18 00:55:52;;;;;;;8.90;5.63;;;19.60;78.00;;;;;;5039811;28;20433;-84
2023/06/18 00:58:18;;;;;;;8.45;5.95;;;19.60;78.10;;;;;;5037286;28;20053;-84
2023/06/18 01:00:44;;;;;;;13.95;5.75;;;19.50;78.60;;;;;;5040311;28;20029;-85
2023/06/18 01:03:16;;;;;;;10.32;5.53;;;19.40;78.60;;;;;;5038598;28;20029;-85
2023/06/18 01:06:02;;;;;;;;;;;19.40;78.50;;;;;;5039255;28;20037;-85
2023/06/18 01:08:32;;;;;;;7.45;5.70;;;19.50;78.80;;;;;;5054850;28;19996;-85
2023/06/18 01:11:05;;;;;;;8.20;5.80;;;19.40;78.90;;;;;;5056922;28;20028;-85
2023/06/18 01:13:36;;;;;;;8.68;5.90;;;19.20;79.20;;;;;;5056379;28;20024;-85
2023/06/18 01:16:06;;;;;;;13.07;5.93;;;19.20;80.70;;;;;;5039455;28;20051;-85
2023/06/18 01:18:35;;;;;;;9.52;6.10;;;19.10;80.70;;;;;;5037961;28;20128;-85
2023/06/18 01:21:13;;;;;;;11.43;5.75;;;19.10;80.70;;;;;;5042131;28;20055;-85
2023/06/18 01:23:50;;;;;;;8.18;6.10;;;19.10;81.00;;;;;;5039545;28;20056;-84
2023/06/18 01:26:21;;;;;;;7.80;5.95;;;19.10;81.30;;;;;;5035597;28;20029;-84
2023/06/18 01:28:53;;;;;;;7.70;6.22;;;19.10;81.10;;;;;;5036054;28;20078;-85
2023/06/18 01:31:23;;;;;;;10.93;5.80;;;19.10;81.30;;;;;;5035568;28;20120;-85
2023/06/18 01:33:53;;;;;;;11.77;6.53;;;19.20;81.50;;;;;;5036240;28;20147;-85
2023/06/18 01:36:47;;;;;;;8.27;5.95;;;19.10;81.70;;;;;;5053787;28;20090;-85
2023/06/18 01:39:36;;;;;;;9.25;6.85;;;19.10;82.10;;;;;;5052920;28;20035;-84
2023/06/18 01:42:16;;;;;;;8.85;5.80;;;18.90;82.30;;;;;;5053915;28;20032;-85
2023/06/18 01:44:51;;;;;;;8.00;5.60;;;18.90;82.80;;;;;;5035807;28;20025;-84
2023/06/18 01:47:19;;;;;;;8.32;5.88;;;18.70;83.50;;;;;;5035668;28;20021;-85
2023/06/18 01:49:45;;;;;;;10.32;6.15;;;18.70;84.10;;;;;;5053698;28;20018;-88
2023/06/18 01:52:16;;;;;;;9.13;6.20;;;18.70;84.30;;;;;;5055364;28;20024;-87
2023/06/18 01:54:44;;;;;;;12.05;7.07;;;18.70;84.20;;;;;;5057726;28;20024;-87
2023/06/18 01:57:10;;;;;;;10.95;6.15;;;18.70;84.40;;;;;;5039112;28;20025;-86
2023/06/18 01:59:41;;;;;;;9.40;6.05;;;18.70;84.20;;;;;;5039857;28;20024;-87
2023/06/18 02:02:07;;;;;;;10.02;6.47;;;18.60;84.70;;;;;;5040145;28;20021;-86
2023/06/18 02:04:32;;;;;;;8.60;6.07;;;18.70;84.60;;;;;;5039615;28;20355;-86
2023/06/18 02:06:58;;;;;;;9.68;6.63;;;18.60;84.90;;;;;;5039840;28;20025;-85
2023/06/18 02:09:23;;;;;;;9.20;6.35;;;18.60;85.00;;;;;;5039284;28;20061;-86
2023/06/18 02:11:49;;;;;;;10.25;6.25;;;18.60;85.00;;;;;;5057650;28;20400;-86
2023/06/18 02:14:15;;;;;;;9.07;6.43;;;18.60;85.30;;;;;;5039443;28;20025;-86
2023/06/18 02:16:40;;;;;;;8.35;6.45;;;18.50;86.10;;;;;;5039614;28;20408;-85
2023/06/18 02:19:06;;;;;;;8.15;6.20;;;18.40;86.60;;;;;;5057251;28;20075;-83
2023/06/18 02:21:32;;;;;;;8.90;6.20;;;18.40;86.90;;;;;;5039103;28;20454;-82
2023/06/18 02:23:58;;;;;;;9.75;6.25;;;18.30;87.40;;;;;;5039756;28;20029;-81
2023/06/18 02:26:23;;;;;;;12.18;6.00;;;18.40;87.30;;;;;;5039850;28;20032;-81
2023/06/18 02:28:49;;;;;;;8.75;5.85;;;18.40;87.50;;;;;;5039551;28;20521;-83
2023/06/18 02:31:15;;;;;;;8.25;5.93;;;18.40;87.20;;;;;;5056987;28;20025;-83
2023/06/18 02:33:40;;;;;;;11.00;6.55;;;18.40;87.40;;;;;;5039663;28;20044;-83
2023/06/18 02:36:06;;;;;;;8.40;6.20;;;18.30;87.70;;;;;;5039776;28;20095;-83
2023/06/18 02:38:32;;;;;;;8.90;6.53;;;18.30;87.70;;;;;;5038663;28;20029;-83
2023/06/18 02:40:58;;;;;;;9.10;6.40;;;18.20;88.00;;;;;;5056915;28;20024;-83
2023/06/18 02:43:25;;;;;;;9.88;6.22;;;18.30;88.10;;;;;;5038741;28;20021;-83
2023/06/18 02:45:52;;;;;;;11.02;6.28;;;18.30;87.80;;;;;;5056912;28;20458;-83
2023/06/18 02:48:17;;;;;;;8.48;6.43;;;18.30;88.20;;;;;;5038510;28;20060;-82
2023/06/18 02:50:43;;;;;;;8.43;6.22;;;18.20;88.70;;;;;;5056944;28;20021;-83
2023/06/18 02:53:08;;;;;;;10.27;6.72;;;18.10;88.50;;;;;;5039294;28;20475;-83
2023/06/18 02:55:34;;;;;;;10.80;6.93;;;18.10;88.10;;;;;;5038822;28;20040;-83
2023/06/18 02:58:02;;;;;;;10.38;5.90;;;18.00;88.50;;;;;;5035339;28;20051;-83
2023/06/18 03:00:28;;;;;;;9.32;6.43;;;18.00;88.80;;;;;;5035310;28;20052;-83
2023/06/18 03:02:53;;;;;;;9.52;6.13;;;18.00;88.20;;;;;;5034429;28;20021;-83
2023/06/18 03:05:19;;;;;;;10.18;6.63;;;18.00;88.00;;;;;;5035797;28;20030;-83
2023/06/18 03:07:45;;;;;;;10.23;6.82;;;18.10;87.80;;;;;;5035578;28;20030;-83
2023/06/18 03:10:11;;;;;;;8.70;5.85;;;18.00;87.80;;;;;;5036421;28;20021;-83
2023/06/18 03:12:36;;;;;;;13.05;6.65;;;18.00;88.30;;;;;;5035052;28;20021;-83
2023/06/18 03:15:06;;;;;;;8.25;6.32;;;17.90;88.70;;;;;;5036660;28;20082;-83
2023/06/18 03:17:32;;;;;;;9.10;6.75;;;17.80;88.40;;;;;;5035788;28;20236;-83
2023/06/18 03:19:58;;;;;;;7.72;5.90;;;17.80;88.50;;;;;;5035403;28;20365;-84
2023/06/18 03:22:23;;;;;;;9.93;6.18;;;17.70;88.90;;;;;;5035636;28;20028;-84
2023/06/18 03:24:49;;;;;;;9.00;6.55;;;17.60;89.50;;;;;;5035189;28;20022;-84
2023/06/18 03:27:15;;;;;;;8.30;5.80;;;17.50;90.00;;;;;;5035647;28;20079;-84
2023/06/18 03:29:41;;;;;;;8.40;5.90;;;17.50;90.30;;;;;;5034959;28;20017;-84
2023/06/18 03:32:08;;;;;;;12.13;6.30;;;17.40;90.60;;;;;;5035756;28;20017;-84
2023/06/18 03:34:35;;;;;;;8.70;5.93;;;17.30;90.80;;;;;;5035536;28;20532;-85
2023/06/18 03:37:01;;;;;;;7.18;5.57;;;17.30;91.00;;;;;;5035153;28;20028;-84
2023/06/18 03:39:26;;;;;;;8.40;6.53;;;17.20;91.10;;;;;;5034187;28;20061;-84
2023/06/18 03:41:52;;;;;;;8.82;6.07;;;17.10;91.40;;;;;;5034726;28;20029;-84
2023/06/18 03:44:18;;;;;;;8.32;6.15;;;17.20;91.50;;;;;;5034009;28;20025;-83
2023/06/18 03:46:43;;;;;;;9.27;6.75;;;17.30;91.20;;;;;;5034391;28;20025;-82
2023/06/18 03:49:09;;;;;;;9.30;6.63;;;17.40;90.90;;;;;;5034539;28;20021;-83
2023/06/18 03:51:34;;;;;;;8.15;6.43;;;17.50;90.80;;;;;;5034980;28;20021;-82
2023/06/18 03:54:00;;;;;;;11.20;6.68;;;17.60;90.80;;;;;;5034572;28;20446;-82
2023/06/18 03:56:26;;;;;;;9.77;6.60;;;17.60;90.80;;;;;;5034116;28;20169;-82
2023/06/18 03:58:52;;;;;;;9.93;6.47;;;17.60;90.70;;;;;;5034305;28;20478;-83
2023/06/18 04:01:18;;;;;;;10.15;6.43;;;17.70;90.70;;;;;;5033688;28;20023;-83
2023/06/18 04:03:43;;;;;;;10.07;6.53;;;17.70;90.80;;;;;;5035352;28;20017;-82
2023/06/18 04:06:09;;;;;;;10.55;6.88;;;17.70;90.90;;;;;;5034596;28;20386;-83
2023/06/18 04:08:35;;;;;;;9.05;6.03;;;17.70;91.00;;;;;;5033936;28;20466;-83
2023/06/18 04:11:01;;;;;;;9.65;6.82;;;17.70;91.20;;;;;;5034000;28;20075;-83
2023/06/18 04:13:28;;;;;;;9.80;6.55;;;17.70;91.60;;;;;;5033796;28;20022;-82
2023/06/18 04:15:54;;;;;;;8.43;6.07;;;17.50;91.50;;;;;;5033804;28;20030;-82
2023/06/18 04:18:20;;;;;;;7.45;6.07;;;17.60;91.40;;;;;;5033696;28;20032;-85
2023/06/18 04:20:46;;;;;;;8.20;6.07;;;17.70;91.10;;;;;;5034269;28;20048;-84
2023/06/18 04:23:12;;;;;;;8.82;6.43;;;17.70;91.00;;;;;;5034251;28;20454;-84
2023/06/18 04:25:38;;;;;;;8.75;6.68;;;17.70;90.80;;;;;;5033578;28;20405;-83
2023/06/18 04:28:04;;;;;;;9.10;6.07;;;17.70;90.70;;;;;;5033758;28;20018;-83
2023/06/18 04:30:30;;;;;;;9.77;5.93;;;17.70;90.70;;;;;;5033455;28;20032;-83
2023/06/18 04:32:56;;;;;;;9.43;6.38;;;17.80;90.60;;;;;;5033873;28;20053;-84
2023/06/18 04:35:21;;;;;;;8.98;6.25;;;17.70;90.50;;;;;;5033229;28;20029;-82
2023/06/18 04:37:47;;;;;;;10.52;6.80;;;17.70;90.50;;;;;;5034822;28;20100;-84
2023/06/18 04:40:12;;;;;;;7.70;6.13;;;17.60;90.70;;;;;;5034808;28;20044;-83
2023/06/18 04:42:38;;;;;;;9.38;6.60;;;17.50;91.20;;;;;;5033788;28;20415;-83
2023/06/18 04:45:04;;;;;;;10.48;6.50;;;17.40;91.50;;;;;;5033548;28;20021;-83
2023/06/18 04:47:30;;;;;;;9.40;6.65;;;17.40;91.70;;;;;;5033842;28;20048;-83
2023/06/18 04:49:56;;;;;;;9.95;6.18;;;17.40;91.60;;;;;;5034427;28;20029;-84
2023/06/18 04:52:21;;;;;;;8.52;6.40;;;17.60;91.30;;;;;;5033059;28;20021;-83
2023/06/18 04:54:47;;;;;;;7.43;6.28;;;17.60;91.20;;;;;;5033616;28;20025;-84
2023/06/18 04:57:13;;;;;;;9.05;6.57;;;17.60;91.20;;;;;;5036487;28;20074;-83
2023/06/18 04:59:39;;;;;;;9.20;6.38;;;17.70;91.00;;;;;;5036447;28;20029;-84
2023/06/18 05:02:05;;;;;;;9.02;6.68;;;17.70;90.90;;;;;;5054488;28;20025;-83
2023/06/18 05:04:31;;;;;;;8.25;6.15;;;17.80;91.00;;;;;;5036154;28;20025;-83
2023/06/18 05:06:56;;;;;;;9.75;6.55;;;17.80;91.10;;;;;;5036584;28;20039;-84
2023/06/18 05:09:22;;;;;;;9.75;6.47;;;17.80;91.10;;;;;;5053251;28;20124;-83
2023/06/18 05:11:48;;;;;;;11.38;6.32;;;17.80;91.20;;;;;;5054461;28;20446;-83
2023/06/18 05:14:14;;;;;;;8.80;6.57;;;17.90;91.60;;;;;;5053968;28;20033;-83
2023/06/18 05:16:39;;;;;;;8.88;6.55;;;17.90;91.60;;;;;;5036098;28;20032;-84
2023/06/18 05:19:05;;;;;;;9.85;6.20;;;17.90;91.70;;;;;;5036674;28;20052;-83
2023/06/18 05:21:31;;;;;;;8.75;6.88;;;18.00;91.80;;;;;;5036237;28;20159;-83
2023/06/18 05:23:56;;;;;;;10.73;6.35;;;18.10;91.60;;;;;;5036447;28;20032;-84
2023/06/18 05:26:22;;;;;;;8.70;6.70;;;18.10;91.80;;;;;;5036344;28;20450;-83
2023/06/18 05:28:48;;;;;;;10.00;6.68;;;18.10;91.60;;;;;;5040985;28;20021;-85
2023/06/18 05:31:14;;;;;;;10.27;7.07;;;18.20;91.60;;;;;;5040763;28;20028;-84
2023/06/18 05:33:40;;;;;;;9.90;6.60;;;18.20;91.70;;;;;;5040005;28;20194;-83
2023/06/18 05:36:05;;;;;;;10.57;7.00;;;18.30;91.40;;;;;;5040506;28;20021;-84
2023/06/18 05:38:31;;;;;;;11.18;6.70;;;18.40;91.20;;;;;;5040127;28;20082;-84
2023/06/18 05:40:56;;;;;;;10.25;6.85;;;18.40;91.30;;;;;;5040330;28;20025;-84
2023/06/18 05:43:22;;;;;;;10.07;6.85;;;18.40;91.40;;;;;;5039641;28;20127;-83
2023/06/18 05:45:47;;;;;;;10.80;7.25;;;18.50;91.40;;;;;;5040204;28;20032;-84
2023/06/18 05:48:14;;;;;;;9.23;7.15;;;18.60;91.80;;;;;;5040102;28;20111;-83
2023/06/18 05:50:40;;;;;;;10.38;7.32;;;18.70;91.80;;;;;;5039642;28;20071;-85
2023/06/18 05:53:06;;;;;;;10.80;7.43;;;18.70;91.50;;;;;;5057854;28;20025;-83
2023/06/18 05:55:32;;;;;;;11.68;7.47;;;18.80;91.50;;;;;;5039679;28;20025;-83
2023/06/18 05:57:57;;;;;;;11.07;6.82;;;18.80;91.50;;;;;;5040106;28;20041;-84
2023/06/18 06:00:23;;;;;;;12.32;6.90;;;18.90;91.50;;;;;;5037944;28;20036;-84
2023/06/18 06:02:48;;;;;;;10.32;7.13;;;18.90;91.70;;;;;;5020125;28;20017;-84
2023/06/18 06:05:14;;;;;;;9.20;6.60;;;18.90;91.60;;;;;;5038672;28;20109;-84
2023/06/18 06:07:40;;;;;;;10.63;6.80;;;18.90;91.70;;;;;;5039439;28;20033;-83
2023/06/18 06:10:06;;;;;;;10.80;6.78;;;19.00;91.60;;;;;;5057319;28;20056;-84
2023/06/18 06:12:31;;;;;;;14.18;6.30;;;19.10;91.30;;;;;;5019142;28;20025;-83
2023/06/18 06:14:57;;;;;;;7.93;6.00;;;19.10;91.30;;;;;;5020105;28;20033;-83
2023/06/18 06:17:22;;;;;;;9.63;6.65;;;19.20;90.90;;;;;;5037791;28;20453;-80
2023/06/18 06:19:49;;;;;;;9.45;7.18;;;19.20;90.50;;;;;;5039339;28;20136;-81
2023/06/18 06:22:15;;;;;;;10.48;6.82;;;19.30;90.10;;;;;;5039867;28;20052;-81
2023/06/18 06:24:40;;;;;;;10.18;7.05;;;19.30;89.50;;;;;;5038941;28;20446;-81
2023/06/18 06:27:06;;;;;;;9.57;6.25;;;19.40;89.80;;;;;;5022735;28;20030;-83
2023/06/18 06:29:31;;;;;;;9.98;6.60;;;19.40;89.10;;;;;;5018933;28;20025;-83
2023/06/18 06:31:57;;;;;;;10.95;7.15;;;19.40;88.40;;;;;;5019725;28;20066;-84
2023/06/18 06:34:23;;;;;;;10.63;6.88;;;19.50;87.80;;;;;;5019321;28;20450;-84
2023/06/18 06:36:50;;;;;;;8.93;6.85;;;19.50;87.20;;;;;;5019613;28;20037;-88
2023/06/18 06:39:16;;;;;;;9.85;6.78;;;19.60;87.50;;;;;;5019404;28;20029;-84
2023/06/18 06:41:42;;;;;;;10.52;6.32;;;19.60;88.10;;;;;;5044160;28;20021;-85
2023/06/18 06:44:07;;;;;;;11.40;6.97;;;19.60;87.70;;;;;;5037790;28;20481;-86
2023/06/18 06:46:34;;;;;;;8.30;6.80;;;19.70;86.80;;;;;;5051177;28;20028;-83
2023/06/18 06:49:00;;;;;;;8.75;6.07;;;19.80;85.90;;;;;;5055725;28;20511;-82
2023/06/18 06:51:25;;;;;;;10.55;6.53;;;19.80;85.70;;;;;;5043133;28;20060;-82
2023/06/18 06:53:51;;;;;;;9.52;6.60;;;19.90;85.00;;;;;;5054508;28;20025;-83
2023/06/18 06:56:17;;;;;;;8.23;6.28;;;20.00;84.10;;;;;;5040365;28;20052;-84
2023/06/18 06:58:42;;;;;;;7.78;6.13;;;20.10;84.00;;;;;;5044781;28;20041;-84
2023/06/18 07:01:08;;;;;;;8.95;6.30;;;20.20;83.40;;;;;;5055402;28;20036;-83
2023/06/18 07:03:33;;;;;;;8.93;5.65;;;20.30;82.70;;;;;;5055491;28;20466;-84
2023/06/18 07:05:59;;;;;;;8.00;6.40;;;20.30;82.00;;;;;;5047043;28;20025;-84
2023/06/18 07:08:25;;;;;;;9.70;6.40;;;20.30;81.80;;;;;;5038268;28;20033;-84
2023/06/18 07:10:50;;;;;;;8.82;5.95;;;20.40;81.00;;;;;;5037813;28;20029;-85
2023/06/18 07:13:16;;;;;;;9.50;6.35;;;20.40;80.60;;;;;;5038008;28;20024;-84
2023/06/18 07:15:41;;;;;;;6.93;5.68;;;20.40;80.10;;;;;;5042987;28;20108;-84
2023/06/18 07:18:07;;;;;;;8.25;6.05;;;20.50;79.80;;;;;;5038481;28;20031;-85
2023/06/18 07:20:33;;;;;;;10.65;6.15;;;20.50;80.00;;;;;;5037841;28;20083;-85
2023/06/18 07:22:58;;;;;;;9.38;6.25;;;20.60;79.90;;;;;;5056103;28;20406;-85
2023/06/18 07:25:24;;;;;;;10.40;6.47;;;20.60;79.30;;;;;;5050229;28;20087;-82
2023/06/18 07:27:49;;;;;;;9.18;6.20;;;20.70;78.80;;;;;;5038646;28;20484;-85
2023/06/18 07:30:15;;;;;;;13.00;6.60;;;20.70;78.50;;;;;;5051577;28;20092;-86
2023/06/18 07:32:41;;;;;;;8.48;5.40;;;20.80;78.00;;;;;;5039170;28;20017;-85
2023/06/18 07:35:07;;;;;;;8.65;5.78;;;20.80;78.10;;;;;;5054759;28;20465;-85
2023/06/18 07:37:33;;;;;;;7.40;5.35;;;20.90;78.30;;;;;;5027051;28;20501;-85
2023/06/18 07:39:59;;;;;;;8.27;5.53;;;21.00;78.90;;;;;;5037514;28;20029;-83
2023/06/18 07:42:24;;;;;;;7.43;5.43;;;21.00;78.80;;;;;;5054926;28;20029;-80
2023/06/18 07:44:52;;;;;;;8.60;5.70;;;21.00;77.90;;;;;;5043482;28;20040;-83
2023/06/18 07:47:17;;;;;;;9.98;5.93;;;21.10;78.30;;;;;;5032458;28;20029;-84
2023/06/18 07:49:43;;;;;;;8.50;6.20;;;21.10;78.10;;;;;;5033667;28;20466;-83
2023/06/18 07:52:09;;;;;;;7.28;5.80;;;21.20;78.50;;;;;;5047170;28;20025;-84
2023/06/18 07:54:35;;;;;;;7.63;5.80;;;21.30;79.10;;;;;;5044673;28;20079;-84
2023/06/18 07:57:01;;;;;;;9.98;5.72;;;21.40;77.60;;;;;;5028907;28;20516;-84
2023/06/18 07:59:27;;;;;;;7.90;5.72;;;21.40;77.60;;;;;;5031462;28;20021;-84
2023/06/18 08:01:52;;;;;;;8.32;6.18;;;21.50;78.20;;;;;;5049861;28;20049;-84
2023/06/18 08:04:18;;;;;;;9.75;5.80;;;21.60;78.70;;;;;;5048436;28;20037;-85
2023/06/18 08:06:46;;;;;;;9.27;5.90;;;21.60;78.50;;;;;;5034790;28;20033;-84
2023/06/18 08:09:11;;;;;;;7.60;5.70;;;21.60;78.70;;;;;;5031128;28;20032;-84
2023/06/18 08:11:37;;;;;;;11.52;6.68;;;21.70;78.60;;;;;;5029047;28;20386;-82
2023/06/18 08:14:03;;;;;;;9.00;6.30;;;21.80;78.70;;;;;;5028364;28;20035;-84
2023/06/18 08:16:29;;;;;;;7.75;6.05;;;21.90;78.50;;;;;;5027136;28;20083;-86
2023/06/18 08:18:54;;;;;;;8.85;6.30;;;21.90;78.40;;;;;;5035122;28;20434;-84
2023/06/18 08:21:21;;;;;;;8.68;6.13;;;22.00;78.60;;;;;;5034789;28;20531;-84
2023/06/18 08:23:47;;;;;;;8.00;5.97;;;22.10;78.00;;;;;;5044883;28;20025;-86
2023/06/18 08:26:13;;;;;;;8.02;6.13;;;22.20;77.90;;;;;;5032856;28;20385;-83
2023/06/18 08:28:39;;;;;;;9.10;6.00;;;22.30;77.90;;;;;;5047856;28;20029;-84
2023/06/18 08:31:05;;;;;;;14.38;7.78;;;22.30;77.80;;;;;;5035922;28;20021;-85
2023/06/18 08:33:30;;;;;;;8.18;6.28;;;22.30;77.60;;;;;;5046059;28;20026;-84
2023/06/18 08:35:56;;;;;;;9.30;6.00;;;22.40;77.60;;;;;;5032941;28;20394;-84
2023/06/18 08:38:21;;;;;;;9.25;5.90;;;22.40;77.70;;;;;;5032259;28;20021;-86
2023/06/18 08:40:52;;;;;;;7.95;5.90;;;22.40;77.60;;;;;;5031434;28;20036;-84
2023/06/18 08:43:26;;;;;;;8.17;6.17;;;22.30;78.20;;;;;;5048048;28;20028;-84
2023/06/18 08:45:52;;;;;;;9.27;6.07;;;22.40;78.50;;;;;;5046711;28;20328;-84
2023/06/18 08:48:26;;;;;;;9.60;6.80;;;22.40;79.10;;;;;;5039767;28;20040;-84
2023/06/18 08:51:03;;;;;;;7.30;6.03;;;22.50;79.10;;;;;;5028979;28;20029;-85
2023/06/18 08:53:54;;;;;;;10.15;6.13;;;22.50;79.40;;;;;;5053020;28;20025;-83
2023/06/18 08:56:22;;;;;;;10.27;6.13;;;22.50;78.80;;;;;;5048121;28;20450;-84
2023/06/18 08:58:57;;;;;;;10.00;6.40;;;22.60;78.70;;;;;;5019852;28;20397;-84
2023/06/18 09:01:23;;;;;;;7.68;6.20;;;22.70;79.20;;;;;;5053026;28;20028;-87
2023/06/18 09:03:51;;;;;;;8.40;6.78;;;22.70;79.20;;;;;;5043516;28;20028;-85
2023/06/18 09:06:17;;;;;;;9.18;6.22;;;22.80;78.70;;;;;;5040793;28;20083;-89
2023/06/18 09:08:43;;;;;;;9.52;6.43;;;22.80;79.10;;;;;;5035182;28;20579;-90
2023/06/18 09:11:08;;;;;;;9.20;6.03;;;22.90;79.40;;;;;;5045991;28;20033;-88
2023/06/18 09:13:41;;;;;;;9.95;6.10;;;23.00;79.40;;;;;;5041967;28;20029;-89
2023/06/18 09:16:07;;;;;;;10.13;6.15;;;23.00;79.60;;;;;;5040787;28;20550;-89
2023/06/18 09:18:33;;;;;;;9.13;6.13;;;23.00;79.40;;;;;;5050546;28;20359;-89
2023/06/18 09:20:59;;;;;;;8.00;6.18;;;23.10;78.90;;;;;;5053643;28;20032;-87
2023/06/18 09:23:25;;;;;;;11.85;6.50;;;23.20;78.50;;;;;;5052582;28;20025;-83
2023/06/18 09:25:55;;;;;;;8.95;6.22;;;23.20;78.20;;;;;;5046301;28;20029;-88
2023/06/18 09:28:23;;;;;;;7.60;6.00;;;23.30;78.70;;;;;;5031554;28;20098;-85
2023/06/18 09:30:53;;;;;;;10.60;6.28;;;23.50;78.30;;;;;;5052700;28;20025;-90
2023/06/18 09:33:33;;;;;;;8.75;6.18;;;23.50;77.50;;;;;;5034982;28;20102;-84
2023/06/18 09:36:05;;;;;;;7.75;5.95;;;23.60;77.00;;;;;;5044526;28;20025;-86
2023/06/18 09:38:35;;;;;;;7.40;5.90;;;23.60;77.50;;;;;;5052939;28;20039;-85
2023/06/18 09:41:01;;;;;;;9.23;5.95;;;23.60;76.30;;;;;;5053031;28;20037;-88
2023/06/18 09:43:35;;;;;;;8.27;5.60;;;23.70;75.80;;;;;;5051367;28;20052;-88
2023/06/18 09:46:04;;;;;;;7.40;5.93;;;23.70;75.00;;;;;;5051363;28;20123;-86
2023/06/18 09:48:31;;;;;;;10.18;6.20;;;23.80;74.90;;;;;;5036581;28;20036;-92
2023/06/18 09:50:57;;;;;;;8.82;5.95;;;23.90;75.20;;;;;;5048187;28;20033;-89
2023/06/18 09:53:23;;;;;;;6.25;5.35;;;23.90;75.10;;;;;;5023439;28;20040;-88
2023/06/18 09:55:49;;;;;;;9.57;5.82;;;24.00;74.30;;;;;;5033455;28;20028;-89
2023/06/18 09:58:15;;;;;;;6.43;5.22;;;24.00;74.00;;;;;;5020655;28;20111;-92
2023/06/18 10:00:40;;;;;;;8.93;5.68;;;24.00;73.80;;;;;;5031041;28;20034;-87
2023/06/18 10:03:07;;;;;;;8.50;5.78;;;24.00;74.10;;;;;;5032247;28;20095;-86
2023/06/18 10:05:34;;;;;;;7.40;5.55;;;24.10;73.80;;;;;;5023584;28;20041;-87
2023/06/18 10:08:03;;;;;;;9.38;5.25;;;24.20;73.60;;;;;;5031450;28;20398;-85
2023/06/18 10:10:30;;;;;;;8.57;5.50;;;24.30;73.40;;;;;;5030842;28;20026;-91
2023/06/18 10:13:00;;;;;;;8.27;5.45;;;24.40;72.20;;;;;;5032678;28;20083;-84
2023/06/18 10:15:27;;;;;;;6.90;5.25;;;24.50;72.50;;;;;;5035254;28;20030;-82
2023/06/18 10:17:56;;;;;;;7.57;5.15;;;24.50;71.10;;;;;;5035244;28;20031;-85
2023/06/18 10:20:25;;;;;;;6.32;4.65;;;24.60;70.50;;;;;;5034927;28;20467;-83
2023/06/18 10:22:57;;;;;;;7.50;4.90;;;24.70;67.30;;;;;;5035438;28;20112;-84
2023/06/18 10:25:25;;;;;;;5.88;4.75;;;24.80;68.30;;;;;;5035472;28;20068;-85
2023/06/18 10:27:51;;;;;;;7.32;5.18;;;24.90;69.30;;;;;;5027995;28;20033;-84
2023/06/18 10:30:18;;;;;;;5.40;4.30;;;25.00;68.70;;;;;;5030802;28;20112;-83
2023/06/18 10:32:44;;;;;;;5.93;4.65;;;25.10;66.90;;;;;;5033298;28;20033;-82
2023/06/18 10:35:12;;;;;;;5.60;4.13;;;25.10;67.60;;;;;;5035615;28;20030;-88
2023/06/18 10:37:40;;;;;;;4.72;4.03;;;25.20;63.10;;;;;;5029271;28;20030;-83
2023/06/18 10:40:06;;;;;;;5.15;3.97;;;25.20;59.70;;;;;;5025212;28;20051;-90
2023/06/18 10:42:33;;;;;;;5.85;4.38;;;25.20;60.10;;;;;;5030523;28;20029;-90
2023/06/18 10:45:13;;;;;;;6.45;4.10;;;25.30;61.30;;;;;;5029175;28;20026;-92
2023/06/18 10:47:40;;;;;;;7.70;4.05;;;25.40;58.70;;;;;;5029164;28;20367;-87
2023/06/18 10:50:17;;;;;;;5.57;4.10;;;25.40;59.80;;;;;;5026608;28;20049;-90
2023/06/18 10:52:43;;;;;;;6.32;3.80;;;25.50;60.40;;;;;;5034252;28;20530;-86
2023/06/18 10:55:18;;;;;;;6.60;3.72;;;25.50;58.40;;;;;;5034861;28;20030;-85
2023/06/18 10:57:50;;;;;;;6.45;4.13;;;25.40;58.60;;;;;;5026190;28;20057;-86
2023/06/18 11:00:21;;;;;;;5.30;4.40;;;25.60;59.80;;;;;;5030927;28;20096;-83
2023/06/18 11:02:49;;;;;;;7.07;3.90;;;25.70;62.10;;;;;;5032900;28;20029;-82
2023/06/18 11:05:34;;;;;;;4.90;3.90;;;25.90;59.60;;;;;;5027059;28;20065;-84
2023/06/18 11:08:05;;;;;;;5.72;4.15;;;26.10;58.00;;;;;;5047091;28;20075;-88
2023/06/18 11:10:42;;;;;;;5.60;3.58;;;26.10;58.60;;;;;;5042199;28;20413;-89
2023/06/18 11:13:09;;;;;;;5.30;3.92;;;26.20;57.80;;;;;;5035295;28;20533;-86
2023/06/18 11:15:56;;;;;;;4.40;3.70;;;26.20;56.70;;;;;;5029621;28;20065;-84
2023/06/18 11:18:25;;;;;;;5.40;3.90;;;26.20;56.30;;;;;;5022602;28;20033;-83
2023/06/18 11:20:52;;;;;;;4.78;3.92;;;26.30;57.30;;;;;;5027877;28;20359;-80
2023/06/18 11:23:18;;;;;;;6.43;3.80;;;26.40;58.40;;;;;;5024539;28;20025;-94
2023/06/18 11:25:46;;;;;;;4.35;3.65;;;26.50;57.80;;;;;;5026922;28;20038;-83
2023/06/18 11:28:13;;;;;;;6.03;3.55;;;26.50;57.30;;;;;;5021063;28;20057;-88
2023/06/18 11:30:41;;;;;;;4.88;4.10;;;26.50;57.30;;;;;;5032396;28;20026;-86
2023/06/18 11:33:06;;;;;;;5.38;3.58;;;26.60;56.80;;;;;;5024495;28;20036;-83
2023/06/18 11:35:32;;;;;;;4.68;3.47;;;26.60;56.80;;;;;;5023167;28;20037;-87
2023/06/18 11:37:58;;;;;;;4.38;3.53;;;26.70;55.70;;;;;;5039946;28;20068;-87
2023/06/18 11:40:24;;;;;;;6.15;3.53;;;26.70;55.20;;;;;;5031317;28;20040;-86
2023/06/18 11:42:51;;;;;;;5.20;3.80;;;26.70;55.10;;;;;;5028316;28;20029;-83
2023/06/18 11:45:18;;;;;;;5.90;3.60;;;26.80;56.00;;;;;;5030962;28;20061;-82
2023/06/18 11:47:47;;;;;;;4.25;3.53;;;26.80;55.40;;;;;;5027296;28;20038;-82
2023/06/18 11:50:13;;;;;;;4.65;3.58;;;26.90;54.80;;;;;;5032914;28;20028;-83
2023/06/18 11:52:39;;;;;;;4.50;3.30;;;27.00;54.50;;;;;;5040734;28;20029;-81
2023/06/18 11:55:06;;;;;;;3.97;3.38;;;27.10;55.30;;;;;;5043034;28;20030;-83
2023/06/18 11:57:32;;;;;;;4.50;3.38;;;27.10;54.70;;;;;;5036416;28;20052;-83
2023/06/18 11:59:59;;;;;;;5.70;3.65;;;27.20;54.90;;;;;;5045958;28;20025;-83
2023/06/18 12:02:27;;;;;;;7.03;3.65;;;27.20;54.40;;;;;;5038244;28;20033;-82
2023/06/18 12:04:57;;;;;;;8.43;3.60;;;27.20;54.30;;;;;;5036647;28;20083;-82
2023/06/18 12:07:24;;;;;;;4.93;3.47;;;27.50;54.20;;;;;;5037383;28;20041;-87
2023/06/18 12:09:53;;;;;;;4.18;3.30;;;27.60;54.40;;;;;;5051112;28;20357;-81
2023/06/18 12:12:43;;;;;;;5.82;4.07;;;27.80;53.90;;;;;;5042737;28;20025;-84
2023/06/18 12:15:21;;;;;;;6.93;3.72;;;27.90;53.30;;;;;;5033010;28;20033;-82
2023/06/18 12:18:08;;;;;;;5.28;3.63;;;28.10;52.60;;;;;;5044833;28;20134;-85
2023/06/18 12:20:35;;;;;;;4.72;3.55;;;28.20;52.70;;;;;;5041180;28;20480;-82
2023/06/18 12:23:02;;;;;;;5.65;3.78;;;28.30;52.50;;;;;;5043401;28;20492;-87
2023/06/18 12:25:30;;;;;;;5.85;3.60;;;28.30;52.60;;;;;;5030910;28;20039;-82
2023/06/18 12:27:57;;;;;;;7.53;3.50;;;28.40;52.80;;;;;;5040943;28;20108;-84
2023/06/18 12:30:28;;;;;;;10.52;3.80;;;28.40;51.90;;;;;;5030569;28;20031;-81
2023/06/18 12:33:01;;;;;;;;;;;28.50;52.60;;;;;;5032787;28;20032;-82
2023/06/18 12:35:26;;;;;;;5.35;3.58;;;28.50;51.90;;;;;;5021093;28;19913;-84
2023/06/18 12:37:52;;;;;;;4.90;3.42;;;28.60;52.10;;;;;;5033296;28;20497;-82
2023/06/18 12:40:25;;;;;;;6.00;3.63;;;28.60;51.70;;;;;;5031865;28;20052;-85
2023/06/18 12:42:51;;;;;;;3.78;3.30;;;28.60;51.10;;;;;;5025878;28;20060;-82
2023/06/18 12:45:29;;;;;;;5.38;3.47;;;28.60;51.60;;;;;;5031893;28;20083;-80
2023/06/18 12:47:55;;;;;;;4.97;3.35;;;28.70;51.40;;;;;;5029759;28;20076;-82